Terminal Aerodrome Forecast
Issued by NWS

Home | Current Version | Previous Version | Text Only | Print | Product List | Glossary On
Versions: 1 2 3 4 5 6 7 8 9 10 11 12 13 14 15 16
744
FTUS46 KSEW 070403 AAA
TAFOLM
TAF AMD
KOLM 070403Z 0704/0724 20004KT P6SM BKN100
      TEMPO 0704/0708 1/2SM FG VV003
     FM071500 VRB03KT P6SM SCT025 BKN035 OVC050
      TEMPO 0716/0720 -RA
     FM072200 VRB03KT P6SM SCT035 BKN045=

USA.gov is the U.S. government's official web portal to all federal, state and local government web resources and services.